createdAt,value
2022-08-20T00:00:38.968Z,90.7
2022-08-20T00:05:41.346Z,324.7
2022-08-20T00:10:46.228Z,554.1
2022-08-20T00:15:47.139Z,641
2022-08-20T00:20:49.651Z,641.3
2022-08-20T00:25:52.595Z,537.9
2022-08-20T00:30:54.982Z,6.9
2022-08-20T00:35:57.605Z,8.5
2022-08-20T00:41:00.314Z,3.1
2022-08-20T00:46:04.289Z,3
2022-08-20T00:51:07.015Z,2.8
2022-08-20T00:56:09.596Z,3
2022-08-20T01:01:12.443Z,3
2022-08-20T01:06:14.805Z,2.5
2022-08-20T01:11:17.266Z,2.5
2022-08-20T01:16:19.874Z,2.8
2022-08-20T01:21:22.799Z,2.9
2022-08-20T01:26:25.401Z,2.8
2022-08-20T01:31:27.891Z,2.9
2022-08-20T01:36:30.184Z,2.9
2022-08-20T01:41:33.078Z,3
2022-08-20T01:46:38.102Z,3
2022-08-20T01:51:37.153Z,2.8
2022-08-20T01:56:39.745Z,2.9
2022-08-20T02:01:47.603Z,3.2
2022-08-20T02:06:58.026Z,3.1
2022-08-20T02:11:50.911Z,3.2
2022-08-20T02:16:56.384Z,3.1
2022-08-20T02:21:59.171Z,3.2
2022-08-20T02:27:01.626Z,3.2
2022-08-20T02:32:34.516Z,3.8
2022-08-20T02:37:07.182Z,4.7
2022-08-20T02:42:09.474Z,6.2
2022-08-20T02:47:12.400Z,6.2
2022-08-20T02:52:15.607Z,6
2022-08-20T02:57:18.558Z,5.7
2022-08-20T03:02:21.223Z,5.8
2022-08-20T03:07:24.189Z,5.5
2022-08-20T03:12:26.978Z,5.2
2022-08-20T03:17:29.585Z,5.2
2022-08-20T03:22:32.493Z,5.4
2022-08-20T03:27:37.538Z,5.9
2022-08-20T03:32:41.142Z,5.6
2022-08-20T03:37:49.461Z,5.9
2022-08-20T03:42:52.806Z,5.7
2022-08-20T03:47:55.777Z,5.4
2022-08-20T03:52:59.367Z,5
2022-08-20T03:58:01.776Z,4.8
2022-08-20T04:03:04.142Z,5.1
2022-08-20T04:08:06.628Z,4.7
2022-08-20T04:13:10.856Z,8
2022-08-20T04:18:14.572Z,4.4
2022-08-20T04:23:17.235Z,3.9
2022-08-20T04:28:20.039Z,3.9
2022-08-20T04:33:36.317Z,4
2022-08-20T04:38:51.173Z,4.2
2022-08-20T04:43:33.918Z,4.5
2022-08-20T04:48:36.388Z,4.3
2022-08-20T04:53:39.173Z,4.4
2022-08-20T04:58:41.467Z,4.5
2022-08-20T05:03:44.420Z,4.3
2022-08-20T05:08:47.023Z,4.3
2022-08-20T05:13:49.627Z,3.9
2022-08-20T05:18:53.844Z,4.2
2022-08-20T05:23:56.643Z,4.4
2022-08-20T05:29:00.770Z,4.1
2022-08-20T05:34:03.433Z,4.5
2022-08-20T05:39:06.593Z,4.7
2022-08-20T05:44:09.051Z,4.3
2022-08-20T05:49:11.591Z,4.2
2022-08-20T05:54:14.740Z,3.8
2022-08-20T05:59:23.968Z,3.7
2022-08-20T06:04:26.715Z,3.8
2022-08-20T06:09:33.149Z,3.6
2022-08-20T06:14:37.785Z,3.4
2022-08-20T06:19:45.188Z,3.5
2022-08-20T06:24:41.488Z,3.6
2022-08-20T06:29:44.654Z,3.4
2022-08-20T06:34:52.125Z,3.2
2022-08-20T06:39:56.528Z,3.3
2022-08-20T06:44:59.968Z,3.7
2022-08-20T06:50:02.665Z,3.9
2022-08-20T06:55:05.499Z,4
2022-08-20T07:00:08.090Z,4.3
2022-08-20T07:05:11.186Z,4.7
2022-08-20T07:10:13.710Z,5.3
2022-08-20T07:15:16.041Z,4.9
2022-08-20T07:20:18.479Z,4.9
2022-08-20T07:25:21.922Z,4.9
2022-08-20T07:30:24.803Z,5
2022-08-20T07:35:28.160Z,5.2
2022-08-20T07:40:31.363Z,4.1
2022-08-20T07:45:45.191Z,3.2
2022-08-20T07:50:44.151Z,2.8
2022-08-20T07:56:04.353Z,2.8
2022-08-20T08:00:47.303Z,5.4
2022-08-20T08:05:51.063Z,3.3
2022-08-20T08:10:55.605Z,13.1
2022-08-20T08:15:58.427Z,15.4
2022-08-20T08:21:00.839Z,13.8
2022-08-20T08:26:03.173Z,4.8
2022-08-20T08:31:06.449Z,4.3
2022-08-20T08:36:10.135Z,4.1
2022-08-20T08:41:13.943Z,4.4
2022-08-20T08:46:16.420Z,3.5
2022-08-20T08:51:19.469Z,4.5
2022-08-20T08:56:20.097Z,3.2
2022-08-20T09:01:57.512Z,2.6
2022-08-20T09:06:31.096Z,2.1
2022-08-20T09:11:36.340Z,3.7
2022-08-20T09:16:53.786Z,5.1
2022-08-20T09:21:46.634Z,2.5
2022-08-20T09:26:50.130Z,2.5
2022-08-20T09:31:54.009Z,2.5
2022-08-20T09:36:56.556Z,2.5
2022-08-20T09:42:00.478Z,2.6
2022-08-20T09:47:07.643Z,2.6
2022-08-20T09:52:11.203Z,2.5
2022-08-20T09:57:14.634Z,98.2
2022-08-20T10:02:20.130Z,2.3
2022-08-20T10:07:25.319Z,11
2022-08-20T10:12:27.990Z,2.4
2022-08-20T10:17:32.044Z,2.3
2022-08-20T10:22:34.919Z,2.2
2022-08-20T10:27:38.067Z,2.2
2022-08-20T10:32:41.032Z,2.3
2022-08-20T10:37:45.602Z,2.3
2022-08-20T10:42:49.971Z,2.1
2022-08-20T10:47:52.757Z,2.3
2022-08-20T10:52:55.825Z,2.3
2022-08-20T10:57:59.258Z,2.6
2022-08-20T11:03:03.221Z,2.3
2022-08-20T11:08:06.372Z,12.4
2022-08-20T11:13:11.853Z,2.8
2022-08-20T11:18:14.568Z,2.7
2022-08-20T11:23:17.376Z,2.8
2022-08-20T11:28:32.502Z,2.9
2022-08-20T11:33:27.926Z,2.9
2022-08-20T11:38:30.435Z,2.8
2022-08-20T11:43:32.988Z,2.8
2022-08-20T11:48:36.936Z,2.7
2022-08-20T11:53:42.133Z,2.9
2022-08-20T11:58:45.631Z,2.5
2022-08-20T12:03:50.061Z,3
2022-08-20T12:08:54.505Z,2.8
2022-08-20T12:14:00.114Z,2.7
2022-08-20T12:19:02.915Z,2.7
2022-08-20T12:24:05.941Z,2.7
2022-08-20T12:29:09.249Z,3.4
2022-08-20T12:34:12.392Z,14.3
2022-08-20T12:39:20.458Z,3.8
2022-08-20T12:44:23.555Z,3.5
2022-08-20T12:49:26.225Z,3.6
2022-08-20T12:54:28.586Z,3.5
2022-08-20T12:59:32.577Z,3.6
2022-08-20T13:04:36.455Z,3.7
2022-08-20T13:09:41.332Z,3.7
2022-08-20T13:14:43.971Z,3.7
2022-08-20T13:19:46.717Z,3.2
2022-08-20T13:24:49.146Z,2.9
2022-08-20T13:29:58.532Z,2.9
2022-08-20T13:34:53.585Z,3
2022-08-20T13:39:56.184Z,5.2
2022-08-20T13:44:59.901Z,2.7
2022-08-20T13:50:03.647Z,2.8
2022-08-20T13:55:07.980Z,3
2022-08-20T14:00:10.556Z,3
2022-08-20T14:05:19.645Z,2.9
2022-08-20T14:10:15.139Z,3.2
2022-08-20T14:15:21.205Z,2.9
2022-08-20T14:20:24.050Z,3
2022-08-20T14:25:33.430Z,2.9
2022-08-20T14:30:36.404Z,2.8
2022-08-20T14:35:38.883Z,3
2022-08-20T14:40:41.522Z,2.9
2022-08-20T14:45:44.012Z,3
2022-08-20T14:50:46.495Z,2.9
2022-08-20T14:55:49.007Z,3.3
2022-08-20T15:00:53.493Z,3.4
2022-08-20T15:05:59.238Z,4.1
2022-08-20T15:11:02.960Z,3.5
2022-08-20T15:16:05.198Z,3
2022-08-20T15:21:11.201Z,3.2
2022-08-20T15:26:15.007Z,3.3
2022-08-20T15:31:17.606Z,3.3
2022-08-20T15:36:22.206Z,3.2
2022-08-20T15:41:24.707Z,3.2
2022-08-20T15:46:33.659Z,3.3
2022-08-20T15:51:31.579Z,3.4
2022-08-20T15:56:33.662Z,3.8
2022-08-20T16:01:36.610Z,3.8
2022-08-20T16:06:39.548Z,3.7
2022-08-20T16:11:42.510Z,4
2022-08-20T16:16:45.138Z,4
2022-08-20T16:21:50.896Z,3.9
2022-08-20T16:26:53.687Z,4
2022-08-20T16:31:56.280Z,4.2
2022-08-20T16:37:05.490Z,4.2
2022-08-20T16:42:08.652Z,5
2022-08-20T16:47:15.301Z,5.1
2022-08-20T16:52:19.646Z,5.1
2022-08-20T16:57:20.588Z,4.8
2022-08-20T17:02:23.426Z,4.9
2022-08-20T17:07:33.397Z,4.7
2022-08-20T17:12:27.976Z,4.7
2022-08-20T17:17:32.234Z,5.3
2022-08-20T17:22:36.280Z,5.2
2022-08-20T17:27:39.143Z,5.5
2022-08-20T17:32:42.114Z,5.5
2022-08-20T17:37:44.877Z,6.4
2022-08-20T17:42:49.418Z,6.8
2022-08-20T17:47:52.188Z,6.9
2022-08-20T17:52:56.535Z,6.3
2022-08-20T17:57:59.955Z,6
2022-08-20T18:03:03.802Z,6.6
2022-08-20T18:08:06.958Z,6
2022-08-20T18:13:09.700Z,6.5
2022-08-20T18:18:17.789Z,6.6
2022-08-20T18:23:21.259Z,6.8
2022-08-20T18:28:24.132Z,14
2022-08-20T18:33:27.730Z,24.8
2022-08-20T18:38:30.096Z,50.5
2022-08-20T18:43:33.574Z,102.3
2022-08-20T18:48:38.280Z,81.2
2022-08-20T18:53:40.933Z,55.9
2022-08-20T18:58:43.419Z,43.1
2022-08-20T19:03:49.618Z,44.2
2022-08-20T19:08:52.485Z,29.8
2022-08-20T19:13:56.117Z,39.3
2022-08-20T19:18:58.725Z,29.4
2022-08-20T19:24:02.046Z,26.7
2022-08-20T19:29:04.487Z,34.2
2022-08-20T19:34:22.703Z,28.3
2022-08-20T19:39:09.922Z,27.9
2022-08-20T19:44:12.758Z,31
2022-08-20T19:49:15.834Z,30.5
2022-08-20T19:54:19.208Z,25.3
2022-08-20T19:59:21.693Z,24
2022-08-20T20:04:31.043Z,27.9
2022-08-20T20:09:34.007Z,18.1
2022-08-20T20:14:36.495Z,15.2
2022-08-20T20:19:39.725Z,13.9
2022-08-20T20:24:42.836Z,13.1
2022-08-20T20:29:45.989Z,11.6
2022-08-20T20:34:56.836Z,11.1
2022-08-20T20:39:50.075Z,10.7
2022-08-20T20:44:52.686Z,10.3
2022-08-20T20:49:55.965Z,11.6
2022-08-20T20:54:59.168Z,11.5
2022-08-20T21:00:01.996Z,12.3
2022-08-20T21:05:04.586Z,19.3
2022-08-20T21:10:07.232Z,10.3
2022-08-20T21:15:10.684Z,10.6
2022-08-20T21:20:13.038Z,11.1
2022-08-20T21:25:15.524Z,11
2022-08-20T21:30:17.770Z,11.2
2022-08-20T21:35:20.302Z,10.6
2022-08-20T21:40:23.138Z,10.7
2022-08-20T21:45:32.520Z,10.3
2022-08-20T21:50:36.121Z,10.1
2022-08-20T21:55:40.725Z,10.9
2022-08-20T22:00:43.273Z,11.9
2022-08-20T22:05:45.978Z,11
2022-08-20T22:10:48.923Z,10.6
2022-08-20T22:15:51.743Z,10.5
2022-08-20T22:20:54.116Z,10.8
2022-08-20T22:25:56.901Z,10.7
2022-08-20T22:30:59.826Z,10.6
2022-08-20T22:36:04.570Z,10.2
2022-08-20T22:41:10.877Z,10.6
2022-08-20T22:46:14.379Z,11.1
2022-08-20T22:51:17.588Z,11
2022-08-20T22:56:23.760Z,11.1
2022-08-20T23:01:31.109Z,10.4
2022-08-20T23:06:33.993Z,9.6
2022-08-20T23:11:36.598Z,8.9
2022-08-20T23:16:39.176Z,8.6
2022-08-20T23:21:41.892Z,8
2022-08-20T23:26:53.898Z,7.9
2022-08-20T23:31:48.507Z,7.6
2022-08-20T23:36:51.138Z,7.8
2022-08-20T23:41:57.070Z,7.8
2022-08-20T23:46:59.571Z,7.8
2022-08-20T23:52:01.963Z,8.3
2022-08-20T23:57:09.414Z,8.3
